Terminal Aerodrome Forecast
Issued by NWS

Home | Current Version | Previous Version | Text Only | Print | Product List | Glossary On
Versions: 1 2 3 4 5 6 7 8 9 10 11 12
000
FTUS45 KREV 021700
TAFMMH
TAF
KMMH 021720Z 0218/0318 12008KT P6SM SKC
     FM022100 24010G20KT P6SM SKC
     FM030400 VRB04KT P6SM SKC=

USA.gov is the U.S. government's official web portal to all federal, state and local government web resources and services.